sensor_id;sensor_type;location;lat;lon;timestamp;temperature;humidity
47514;DHT22;33951;51.988;5.910;2022-12-24T00:00:48;10.00;99.90
47514;DHT22;33951;51.988;5.910;2022-12-24T00:03:44;10.00;99.90
47514;DHT22;33951;51.988;5.910;2022-12-24T00:06:27;10.00;99.90
47514;DHT22;33951;51.988;5.910;2022-12-24T00:09:00;10.00;99.90
47514;DHT22;33951;51.988;5.910;2022-12-24T00:15:07;9.90;99.90
47514;DHT22;33951;51.988;5.910;2022-12-24T00:17:52;9.90;99.90
47514;DHT22;33951;51.988;5.910;2022-12-24T00:21:23;9.90;99.90
47514;DHT22;33951;51.988;5.910;2022-12-24T00:23:41;9.90;99.90
47514;DHT22;33951;51.988;5.910;2022-12-24T00:29:27;9.70;99.90
47514;DHT22;33951;51.988;5.910;2022-12-24T00:31:52;9.90;99.90
47514;DHT22;33951;51.988;5.910;2022-12-24T00:34:21;9.80;99.90
47514;DHT22;33951;51.988;5.910;2022-12-24T00:36:56;9.90;99.90
47514;DHT22;33951;51.988;5.910;2022-12-24T00:39:24;9.80;99.90
47514;DHT22;33951;51.988;5.910;2022-12-24T00:41:50;9.80;99.90
47514;DHT22;33951;51.988;5.910;2022-12-24T00:44:15;9.90;99.90
47514;DHT22;33951;51.988;5.910;2022-12-24T00:46:41;9.80;99.90
47514;DHT22;33951;51.988;5.910;2022-12-24T00:49:07;9.80;99.90
47514;DHT22;33951;51.988;5.910;2022-12-24T00:51:33;9.80;99.90
47514;DHT22;33951;51.988;5.910;2022-12-24T00:53:59;9.80;99.90
47514;DHT22;33951;51.988;5.910;2022-12-24T00:56:25;9.80;99.90
47514;DHT22;33951;51.988;5.910;2022-12-24T00:58:51;9.80;99.90
47514;DHT22;33951;51.988;5.910;2022-12-24T05:00:41;9.60;99.90
47514;DHT22;33951;51.988;5.910;2022-12-24T05:03:06;9.60;99.90
47514;DHT22;33951;51.988;5.910;2022-12-24T05:05:34;9.70;99.90
47514;DHT22;33951;51.988;5.910;2022-12-24T05:07:59;9.70;99.90
47514;DHT22;33951;51.988;5.910;2022-12-24T05:10:25;9.70;99.90
47514;DHT22;33951;51.988;5.910;2022-12-24T05:12:50;9.80;99.90
47514;DHT22;33951;51.988;5.910;2022-12-24T05:15:16;9.80;99.90
47514;DHT22;33951;51.988;5.910;2022-12-24T05:17:42;9.80;99.90
47514;DHT22;33951;51.988;5.910;2022-12-24T05:20:09;9.80;99.90
47514;DHT22;33951;51.988;5.910;2022-12-24T05:22:35;9.80;99.90
47514;DHT22;33951;51.988;5.910;2022-12-24T05:25:19;9.90;99.90
47514;DHT22;33951;51.988;5.910;2022-12-24T05:28:03;9.80;99.90
47514;DHT22;33951;51.988;5.910;2022-12-24T05:30:29;9.90;99.90
47514;DHT22;33951;51.988;5.910;2022-12-24T05:32:57;9.90;99.90
47514;DHT22;33951;51.988;5.910;2022-12-24T05:35:22;9.80;99.90
47514;DHT22;33951;51.988;5.910;2022-12-24T05:37:48;9.90;99.90
47514;DHT22;33951;51.988;5.910;2022-12-24T05:40:13;9.90;99.90
47514;DHT22;33951;51.988;5.910;2022-12-24T05:42:39;9.80;99.90
47514;DHT22;33951;51.988;5.910;2022-12-24T05:45:04;9.90;99.90
47514;DHT22;33951;51.988;5.910;2022-12-24T05:47:30;9.80;99.90
47514;DHT22;33951;51.988;5.910;2022-12-24T05:49:55;9.80;99.90
47514;DHT22;33951;51.988;5.910;2022-12-24T05:52:21;9.80;99.90
47514;DHT22;33951;51.988;5.910;2022-12-24T05:54:46;9.80;99.90
47514;DHT22;33951;51.988;5.910;2022-12-24T05:57:12;9.90;99.90
47514;DHT22;33951;51.988;5.910;2022-12-24T05:59:37;9.90;99.90
47514;DHT22;33951;51.988;5.910;2022-12-24T06:02:03;10.00;99.90
47514;DHT22;33951;51.988;5.910;2022-12-24T06:04:28;9.90;99.90
47514;DHT22;33951;51.988;5.910;2022-12-24T06:06:56;9.90;99.90
47514;DHT22;33951;51.988;5.910;2022-12-24T06:09:22;9.90;99.90
47514;DHT22;33951;51.988;5.910;2022-12-24T06:11:48;10.00;99.90
47514;DHT22;33951;51.988;5.910;2022-12-24T06:14:13;10.00;99.90
47514;DHT22;33951;51.988;5.910;2022-12-24T06:16:39;10.00;99.90
47514;DHT22;33951;51.988;5.910;2022-12-24T06:19:04;10.00;99.90
47514;DHT22;33951;51.988;5.910;2022-12-24T06:21:30;9.90;99.90
47514;DHT22;33951;51.988;5.910;2022-12-24T06:23:55;10.10;99.90
47514;DHT22;33951;51.988;5.910;2022-12-24T06:26:21;10.00;99.90
47514;DHT22;33951;51.988;5.910;2022-12-24T06:28:47;10.00;99.90
47514;DHT22;33951;51.988;5.910;2022-12-24T06:31:14;10.00;99.90
47514;DHT22;33951;51.988;5.910;2022-12-24T06:33:40;10.00;99.90
47514;DHT22;33951;51.988;5.910;2022-12-24T06:36:06;10.00;99.90
47514;DHT22;33951;51.988;5.910;2022-12-24T06:38:32;10.10;99.90
47514;DHT22;33951;51.988;5.910;2022-12-24T06:40:58;10.10;99.90
47514;DHT22;33951;51.988;5.910;2022-12-24T06:43:24;10.00;99.90
47514;DHT22;33951;51.988;5.910;2022-12-24T06:45:49;10.10;99.90
47514;DHT22;33951;51.988;5.910;2022-12-24T06:48:15;10.10;99.90
47514;DHT22;33951;51.988;5.910;2022-12-24T06:50:41;10.10;99.90
47514;DHT22;33951;51.988;5.910;2022-12-24T06:53:07;10.20;99.90
47514;DHT22;33951;51.988;5.910;2022-12-24T06:55:33;10.10;99.90
47514;DHT22;33951;51.988;5.910;2022-12-24T06:57:58;10.20;99.90
47514;DHT22;33951;51.988;5.910;2022-12-24T07:00:24;10.20;99.90
47514;DHT22;33951;51.988;5.910;2022-12-24T07:02:49;10.10;99.90
47514;DHT22;33951;51.988;5.910;2022-12-24T07:05:17;10.20;99.90
47514;DHT22;33951;51.988;5.910;2022-12-24T07:07:45;10.20;99.90
47514;DHT22;33951;51.988;5.910;2022-12-24T07:10:14;10.30;99.90
47514;DHT22;33951;51.988;5.910;2022-12-24T07:12:40;10.30;99.90
47514;DHT22;33951;51.988;5.910;2022-12-24T07:15:05;10.20;99.90
47514;DHT22;33951;51.988;5.910;2022-12-24T07:17:34;10.20;99.90
47514;DHT22;33951;51.988;5.910;2022-12-24T07:20:03;10.20;99.90
47514;DHT22;33951;51.988;5.910;2022-12-24T07:22:32;10.10;99.90
47514;DHT22;33951;51.988;5.910;2022-12-24T07:25:00;10.20;99.90
47514;DHT22;33951;51.988;5.910;2022-12-24T07:27:29;10.20;99.90
47514;DHT22;33951;51.988;5.910;2022-12-24T07:29:54;10.30;99.90
47514;DHT22;33951;51.988;5.910;2022-12-24T07:32:20;10.20;99.90
47514;DHT22;33951;51.988;5.910;2022-12-24T07:35:06;10.20;99.90
47514;DHT22;33951;51.988;5.910;2022-12-24T07:37:32;10.10;99.90
47514;DHT22;33951;51.988;5.910;2022-12-24T07:40:05;10.20;99.90
47514;DHT22;33951;51.988;5.910;2022-12-24T07:42:33;10.20;99.90
47514;DHT22;33951;51.988;5.910;2022-12-24T07:45:06;10.20;99.90
47514;DHT22;33951;51.988;5.910;2022-12-24T07:47:37;10.30;99.90
47514;DHT22;33951;51.988;5.910;2022-12-24T07:50:03;10.20;99.90
47514;DHT22;33951;51.988;5.910;2022-12-24T07:52:31;10.20;99.90
47514;DHT22;33951;51.988;5.910;2022-12-24T07:54:59;10.10;99.90
47514;DHT22;33951;51.988;5.910;2022-12-24T07:57:30;10.10;99.90
47514;DHT22;33951;51.988;5.910;2022-12-24T08:02:44;10.10;99.90
47514;DHT22;33951;51.988;5.910;2022-12-24T08:05:12;10.20;99.90
47514;DHT22;33951;51.988;5.910;2022-12-24T08:07:40;10.20;99.90
47514;DHT22;33951;51.988;5.910;2022-12-24T08:10:06;10.20;99.90
47514;DHT22;33951;51.988;5.910;2022-12-24T08:12:34;10.20;99.90
47514;DHT22;33951;51.988;5.910;2022-12-24T08:15:15;10.20;99.90
47514;DHT22;33951;51.988;5.910;2022-12-24T08:17:55;10.20;99.90
47514;DHT22;33951;51.988;5.910;2022-12-24T08:20:23;10.10;99.90
47514;DHT22;33951;51.988;5.910;2022-12-24T08:22:52;10.20;99.90
47514;DHT22;33951;51.988;5.910;2022-12-24T08:25:18;10.10;99.90
47514;DHT22;33951;51.988;5.910;2022-12-24T08:27:52;10.10;99.90
47514;DHT22;33951;51.988;5.910;2022-12-24T08:33:16;10.20;99.90
47514;DHT22;33951;51.988;5.910;2022-12-24T08:35:46;10.20;99.90
47514;DHT22;33951;51.988;5.910;2022-12-24T08:38:12;10.20;99.90
47514;DHT22;33951;51.988;5.910;2022-12-24T08:40:41;10.10;99.90
47514;DHT22;33951;51.988;5.910;2022-12-24T08:43:17;10.20;99.90
47514;DHT22;33951;51.988;5.910;2022-12-24T08:46:02;10.10;99.90
47514;DHT22;33951;51.988;5.910;2022-12-24T08:50:58;10.10;99.90
47514;DHT22;33951;51.988;5.910;2022-12-24T08:53:35;10.10;99.90
47514;DHT22;33951;51.988;5.910;2022-12-24T08:56:17;10.10;99.90
47514;DHT22;33951;51.988;5.910;2022-12-24T08:59:05;10.30;99.90
47514;DHT22;33951;51.988;5.910;2022-12-24T09:01:31;10.20;99.90
47514;DHT22;33951;51.988;5.910;2022-12-24T09:04:08;10.20;99.90
47514;DHT22;33951;51.988;5.910;2022-12-24T09:12:24;10.30;99.90
47514;DHT22;33951;51.988;5.910;2022-12-24T09:14:50;10.30;99.90
47514;DHT22;33951;51.988;5.910;2022-12-24T09:17:40;10.30;99.90
47514;DHT22;33951;51.988;5.910;2022-12-24T09:20:04;10.30;99.90
47514;DHT22;33951;51.988;5.910;2022-12-24T09:22:37;10.20;99.90
47514;DHT22;33951;51.988;5.910;2022-12-24T09:25:03;10.20;99.90
47514;DHT22;33951;51.988;5.910;2022-12-24T09:27:56;10.30;99.90
47514;DHT22;33951;51.988;5.910;2022-12-24T09:30:54;10.30;99.90
47514;DHT22;33951;51.988;5.910;2022-12-24T09:33:34;10.20;99.90
47514;DHT22;33951;51.988;5.910;2022-12-24T09:36:08;10.30;99.90
47514;DHT22;33951;51.988;5.910;2022-12-24T09:38:54;10.30;99.90
47514;DHT22;33951;51.988;5.910;2022-12-24T09:41:44;10.30;99.90
47514;DHT22;33951;51.988;5.910;2022-12-24T09:44:42;10.40;99.90
47514;DHT22;33951;51.988;5.910;2022-12-24T09:50:08;10.40;99.90
47514;DHT22;33951;51.988;5.910;2022-12-24T09:53:00;10.50;99.90
47514;DHT22;33951;51.988;5.910;2022-12-24T09:55:48;10.50;99.90
47514;DHT22;33951;51.988;5.910;2022-12-24T09:58:42;10.50;99.90
47514;DHT22;33951;51.988;5.910;2022-12-24T10:07:08;10.50;99.90
47514;DHT22;33951;51.988;5.910;2022-12-24T10:18:08;10.50;99.90
47514;DHT22;33951;51.988;5.910;2022-12-24T10:20:44;10.60;99.90
47514;DHT22;33951;51.988;5.910;2022-12-24T10:25:55;10.60;99.90
47514;DHT22;33951;51.988;5.910;2022-12-24T10:28:42;10.50;99.90
47514;DHT22;33951;51.988;5.910;2022-12-24T10:31:24;10.50;99.90
47514;DHT22;33951;51.988;5.910;2022-12-24T10:34:12;10.50;99.90
47514;DHT22;33951;51.988;5.910;2022-12-24T10:37:01;10.60;99.90
47514;DHT22;33951;51.988;5.910;2022-12-24T10:39:28;10.70;99.90
47514;DHT22;33951;51.988;5.910;2022-12-24T10:41:59;10.60;99.90
47514;DHT22;33951;51.988;5.910;2022-12-24T10:44:29;10.60;99.90
47514;DHT22;33951;51.988;5.910;2022-12-24T10:47:07;10.70;99.90
47514;DHT22;33951;51.988;5.910;2022-12-24T10:49:35;10.70;99.90
47514;DHT22;33951;51.988;5.910;2022-12-24T10:52:14;10.80;99.90
47514;DHT22;33951;51.988;5.910;2022-12-24T10:58:15;11.00;99.90
47514;DHT22;33951;51.988;5.910;2022-12-24T11:03:36;11.00;99.90
47514;DHT22;33951;51.988;5.910;2022-12-24T11:06:22;11.00;99.90
47514;DHT22;33951;51.988;5.910;2022-12-24T11:08:52;10.90;99.90
47514;DHT22;33951;51.988;5.910;2022-12-24T11:11:40;10.90;99.90
47514;DHT22;33951;51.988;5.910;2022-12-24T11:16:51;11.00;99.90
47514;DHT22;33951;51.988;5.910;2022-12-24T11:19:21;11.00;99.90
47514;DHT22;33951;51.988;5.910;2022-12-24T11:28:32;11.10;99.90
47514;DHT22;33951;51.988;5.910;2022-12-24T12:19:01;11.40;99.90
47514;DHT22;33951;51.988;5.910;2022-12-24T12:28:05;11.10;99.90
47514;DHT22;33951;51.988;5.910;2022-12-24T14:07:59;10.70;99.90
47514;DHT22;33951;51.988;5.910;2022-12-24T14:10:29;10.70;99.90
47514;DHT22;33951;51.988;5.910;2022-12-24T14:12:55;10.70;99.90
47514;DHT22;33951;51.988;5.910;2022-12-24T14:18:21;10.70;99.90
47514;DHT22;33951;51.988;5.910;2022-12-24T14:20:49;10.80;99.90
47514;DHT22;33951;51.988;5.910;2022-12-24T14:25:58;10.70;99.90
47514;DHT22;33951;51.988;5.910;2022-12-24T14:28:33;10.60;99.90
47514;DHT22;33951;51.988;5.910;2022-12-24T14:31:10;10.60;99.90
47514;DHT22;33951;51.988;5.910;2022-12-24T14:33:38;10.50;99.90
47514;DHT22;33951;51.988;5.910;2022-12-24T14:36:03;10.50;99.90
47514;DHT22;33951;51.988;5.910;2022-12-24T14:38:29;10.50;99.90
47514;DHT22;33951;51.988;5.910;2022-12-24T14:48:30;10.30;99.90
47514;DHT22;33951;51.988;5.910;2022-12-24T14:51:03;10.30;99.90
47514;DHT22;33951;51.988;5.910;2022-12-24T14:53:44;10.20;99.90
47514;DHT22;33951;51.988;5.910;2022-12-24T14:56:18;10.20;99.90
47514;DHT22;33951;51.988;5.910;2022-12-24T14:58:55;10.30;99.90
47514;DHT22;33951;51.988;5.910;2022-12-24T15:01:31;10.40;99.90
47514;DHT22;33951;51.988;5.910;2022-12-24T15:09:26;10.20;99.90
47514;DHT22;33951;51.988;5.910;2022-12-24T15:11:54;10.20;99.90
47514;DHT22;33951;51.988;5.910;2022-12-24T15:14:28;10.10;99.90
47514;DHT22;33951;51.988;5.910;2022-12-24T15:16:56;10.00;99.90
47514;DHT22;33951;51.988;5.910;2022-12-24T15:19:58;10.00;99.90
47514;DHT22;33951;51.988;5.910;2022-12-24T15:22:36;9.90;99.90
47514;DHT22;33951;51.988;5.910;2022-12-24T15:25:01;9.90;99.90
47514;DHT22;33951;51.988;5.910;2022-12-24T15:27:31;9.80;99.90
47514;DHT22;33951;51.988;5.910;2022-12-24T15:29:57;9.80;99.90
47514;DHT22;33951;51.988;5.910;2022-12-24T15:32:33;9.80;99.90
47514;DHT22;33951;51.988;5.910;2022-12-24T15:45:59;9.90;99.90
47514;DHT22;33951;51.988;5.910;2022-12-24T15:48:35;9.80;99.90
47514;DHT22;33951;51.988;5.910;2022-12-24T15:51:10;9.80;99.90
47514;DHT22;33951;51.988;5.910;2022-12-24T16:01:44;9.80;99.90
47514;DHT22;33951;51.988;5.910;2022-12-24T16:04:43;9.80;99.90
47514;DHT22;33951;51.988;5.910;2022-12-24T16:07:02;9.80;99.90
47514;DHT22;33951;51.988;5.910;2022-12-24T16:09:41;9.80;99.90
47514;DHT22;33951;51.988;5.910;2022-12-24T16:12:11;9.60;99.90
47514;DHT22;33951;51.988;5.910;2022-12-24T16:14:38;9.40;99.90
47514;DHT22;33951;51.988;5.910;2022-12-24T16:17:14;9.50;99.90
47514;DHT22;33951;51.988;5.910;2022-12-24T16:19:41;9.60;99.90
47514;DHT22;33951;51.988;5.910;2022-12-24T16:22:11;9.60;99.90
47514;DHT22;33951;51.988;5.910;2022-12-24T16:24:56;9.60;99.90
47514;DHT22;33951;51.988;5.910;2022-12-24T16:27:22;9.60;99.90
47514;DHT22;33951;51.988;5.910;2022-12-24T16:29:47;9.60;99.90
47514;DHT22;33951;51.988;5.910;2022-12-24T16:32:23;9.60;99.90
47514;DHT22;33951;51.988;5.910;2022-12-24T16:34:51;9.60;99.90
47514;DHT22;33951;51.988;5.910;2022-12-24T16:37:17;9.50;99.90
47514;DHT22;33951;51.988;5.910;2022-12-24T16:39:42;9.50;99.90
47514;DHT22;33951;51.988;5.910;2022-12-24T16:42:08;9.50;99.90
47514;DHT22;33951;51.988;5.910;2022-12-24T16:44:52;9.70;99.90
47514;DHT22;33951;51.988;5.910;2022-12-24T16:47:19;9.70;99.90
47514;DHT22;33951;51.988;5.910;2022-12-24T16:49:45;9.70;99.90
47514;DHT22;33951;51.988;5.910;2022-12-24T16:52:15;9.60;99.90
47514;DHT22;33951;51.988;5.910;2022-12-24T16:54:41;9.40;99.90
47514;DHT22;33951;51.988;5.910;2022-12-24T16:57:07;9.30;99.90
47514;DHT22;33951;51.988;5.910;2022-12-24T16:59:33;9.50;99.90
47514;DHT22;33951;51.988;5.910;2022-12-24T17:01:58;9.60;99.90
47514;DHT22;33951;51.988;5.910;2022-12-24T17:04:24;9.60;99.90
47514;DHT22;33951;51.988;5.910;2022-12-24T17:06:49;9.50;99.90
47514;DHT22;33951;51.988;5.910;2022-12-24T17:09:15;9.60;99.90
47514;DHT22;33951;51.988;5.910;2022-12-24T17:11:40;9.60;99.90
47514;DHT22;33951;51.988;5.910;2022-12-24T17:14:06;9.60;99.90
47514;DHT22;33951;51.988;5.910;2022-12-24T17:16:31;9.60;99.90
47514;DHT22;33951;51.988;5.910;2022-12-24T17:18:57;9.50;99.90
47514;DHT22;33951;51.988;5.910;2022-12-24T17:21:22;9.30;99.90
47514;DHT22;33951;51.988;5.910;2022-12-24T17:23:48;9.00;99.90
47514;DHT22;33951;51.988;5.910;2022-12-24T17:26:14;9.00;99.90
47514;DHT22;33951;51.988;5.910;2022-12-24T17:28:42;8.90;99.90
47514;DHT22;33951;51.988;5.910;2022-12-24T17:31:12;9.20;99.90
47514;DHT22;33951;51.988;5.910;2022-12-24T17:33:38;9.10;99.90
47514;DHT22;33951;51.988;5.910;2022-12-24T17:36:04;9.00;99.90
47514;DHT22;33951;51.988;5.910;2022-12-24T17:38:29;8.90;99.90
47514;DHT22;33951;51.988;5.910;2022-12-24T17:41:09;9.00;99.90
47514;DHT22;33951;51.988;5.910;2022-12-24T17:43:35;8.90;99.90
47514;DHT22;33951;51.988;5.910;2022-12-24T17:46:04;8.90;99.90
47514;DHT22;33951;51.988;5.910;2022-12-24T17:48:32;8.90;99.90
47514;DHT22;33951;51.988;5.910;2022-12-24T17:51:02;9.10;99.90
47514;DHT22;33951;51.988;5.910;2022-12-24T17:53:27;9.10;99.90
47514;DHT22;33951;51.988;5.910;2022-12-24T17:55:53;8.90;99.90
47514;DHT22;33951;51.988;5.910;2022-12-24T17:58:18;8.80;99.90
47514;DHT22;33951;51.988;5.910;2022-12-24T18:00:44;8.90;99.90
47514;DHT22;33951;51.988;5.910;2022-12-24T18:03:11;9.10;99.90
47514;DHT22;33951;51.988;5.910;2022-12-24T18:05:36;9.20;99.90
47514;DHT22;33951;51.988;5.910;2022-12-24T18:08:02;9.20;99.90
47514;DHT22;33951;51.988;5.910;2022-12-24T18:10:27;9.10;99.90
47514;DHT22;33951;51.988;5.910;2022-12-24T18:12:54;9.00;99.90
47514;DHT22;33951;51.988;5.910;2022-12-24T18:15:20;9.10;99.90
47514;DHT22;33951;51.988;5.910;2022-12-24T18:17:50;9.20;99.90
47514;DHT22;33951;51.988;5.910;2022-12-24T18:20:16;9.20;99.90
47514;DHT22;33951;51.988;5.910;2022-12-24T18:22:41;9.10;99.90
47514;DHT22;33951;51.988;5.910;2022-12-24T18:25:07;9.10;99.90
47514;DHT22;33951;51.988;5.910;2022-12-24T18:27:33;9.20;99.90
47514;DHT22;33951;51.988;5.910;2022-12-24T18:29:59;9.30;99.90
47514;DHT22;33951;51.988;5.910;2022-12-24T18:32:24;9.40;99.90
47514;DHT22;33951;51.988;5.910;2022-12-24T18:34:50;9.30;99.90
47514;DHT22;33951;51.988;5.910;2022-12-24T18:37:15;9.30;99.90
47514;DHT22;33951;51.988;5.910;2022-12-24T18:39:42;9.30;99.90
47514;DHT22;33951;51.988;5.910;2022-12-24T18:42:07;9.30;99.90
47514;DHT22;33951;51.988;5.910;2022-12-24T18:44:41;9.10;99.90
47514;DHT22;33951;51.988;5.910;2022-12-24T18:47:06;9.10;99.90
47514;DHT22;33951;51.988;5.910;2022-12-24T18:49:32;9.10;99.90
47514;DHT22;33951;51.988;5.910;2022-12-24T18:51:58;9.00;99.90
47514;DHT22;33951;51.988;5.910;2022-12-24T18:54:23;9.00;99.90
47514;DHT22;33951;51.988;5.910;2022-12-24T18:56:49;9.00;99.90
47514;DHT22;33951;51.988;5.910;2022-12-24T18:59:15;9.10;99.90
47514;DHT22;33951;51.988;5.910;2022-12-24T19:01:44;9.00;99.90
47514;DHT22;33951;51.988;5.910;2022-12-24T19:04:09;9.00;99.90
47514;DHT22;33951;51.988;5.910;2022-12-24T19:06:35;8.90;99.90
47514;DHT22;33951;51.988;5.910;2022-12-24T19:09:01;8.80;99.90
47514;DHT22;33951;51.988;5.910;2022-12-24T19:11:27;8.60;99.90
47514;DHT22;33951;51.988;5.910;2022-12-24T19:13:53;8.50;99.90
47514;DHT22;33951;51.988;5.910;2022-12-24T19:16:19;8.60;99.90
47514;DHT22;33951;51.988;5.910;2022-12-24T19:18:44;8.50;99.90
47514;DHT22;33951;51.988;5.910;2022-12-24T19:21:11;8.50;99.90
47514;DHT22;33951;51.988;5.910;2022-12-24T19:23:37;8.50;99.90
47514;DHT22;33951;51.988;5.910;2022-12-24T19:26:03;8.80;99.90
47514;DHT22;33951;51.988;5.910;2022-12-24T19:28:29;8.80;99.90
47514;DHT22;33951;51.988;5.910;2022-12-24T19:31:00;8.90;99.90
47514;DHT22;33951;51.988;5.910;2022-12-24T19:33:25;9.00;99.90
47514;DHT22;33951;51.988;5.910;2022-12-24T19:35:51;9.00;99.90
47514;DHT22;33951;51.988;5.910;2022-12-24T19:38:16;9.10;99.90
47514;DHT22;33951;51.988;5.910;2022-12-24T19:40:42;9.00;99.90
47514;DHT22;33951;51.988;5.910;2022-12-24T19:43:07;9.00;99.90
47514;DHT22;33951;51.988;5.910;2022-12-24T19:45:33;9.10;99.90
47514;DHT22;33951;51.988;5.910;2022-12-24T19:47:58;9.10;99.90
47514;DHT22;33951;51.988;5.910;2022-12-24T19:50:24;9.10;99.90
47514;DHT22;33951;51.988;5.910;2022-12-24T19:52:49;9.10;99.90
47514;DHT22;33951;51.988;5.910;2022-12-24T19:55:15;9.20;99.90
47514;DHT22;33951;51.988;5.910;2022-12-24T19:57:40;9.00;99.90
47514;DHT22;33951;51.988;5.910;2022-12-24T20:00:06;9.00;99.90
47514;DHT22;33951;51.988;5.910;2022-12-24T20:02:33;8.80;99.90
47514;DHT22;33951;51.988;5.910;2022-12-24T20:04:59;8.90;99.90
47514;DHT22;33951;51.988;5.910;2022-12-24T20:07:24;9.00;99.90
47514;DHT22;33951;51.988;5.910;2022-12-24T20:09:50;9.00;99.90
47514;DHT22;33951;51.988;5.910;2022-12-24T20:12:15;9.00;99.90
47514;DHT22;33951;51.988;5.910;2022-12-24T20:14:41;9.00;99.90
47514;DHT22;33951;51.988;5.910;2022-12-24T20:17:06;9.10;99.90
47514;DHT22;33951;51.988;5.910;2022-12-24T20:19:32;8.90;99.90
47514;DHT22;33951;51.988;5.910;2022-12-24T20:21:57;9.00;99.90
47514;DHT22;33951;51.988;5.910;2022-12-24T20:24:23;8.90;99.90
47514;DHT22;33951;51.988;5.910;2022-12-24T20:26:48;9.00;99.90
47514;DHT22;33951;51.988;5.910;2022-12-24T20:29:14;8.90;99.90
47514;DHT22;33951;51.988;5.910;2022-12-24T20:31:40;9.00;99.90
47514;DHT22;33951;51.988;5.910;2022-12-24T20:34:06;8.90;99.90
47514;DHT22;33951;51.988;5.910;2022-12-24T20:36:33;9.00;99.90
47514;DHT22;33951;51.988;5.910;2022-12-24T20:38:59;9.10;99.90
47514;DHT22;33951;51.988;5.910;2022-12-24T20:41:25;9.10;99.90
47514;DHT22;33951;51.988;5.910;2022-12-24T20:43:51;9.10;99.90
47514;DHT22;33951;51.988;5.910;2022-12-24T20:46:17;9.20;99.90
47514;DHT22;33951;51.988;5.910;2022-12-24T20:48:47;9.10;99.90
47514;DHT22;33951;51.988;5.910;2022-12-24T20:51:19;9.10;99.90
47514;DHT22;33951;51.988;5.910;2022-12-24T20:53:45;9.10;99.90
47514;DHT22;33951;51.988;5.910;2022-12-24T20:56:14;9.10;99.90
47514;DHT22;33951;51.988;5.910;2022-12-24T20:58:40;9.20;99.90
47514;DHT22;33951;51.988;5.910;2022-12-24T21:01:19;9.10;99.90
47514;DHT22;33951;51.988;5.910;2022-12-24T21:03:45;9.10;99.90
47514;DHT22;33951;51.988;5.910;2022-12-24T21:06:11;9.20;99.90
47514;DHT22;33951;51.988;5.910;2022-12-24T21:08:38;9.20;99.90
47514;DHT22;33951;51.988;5.910;2022-12-24T21:11:03;9.20;99.90
47514;DHT22;33951;51.988;5.910;2022-12-24T21:13:47;9.10;99.90
47514;DHT22;33951;51.988;5.910;2022-12-24T21:16:12;9.10;99.90
47514;DHT22;33951;51.988;5.910;2022-12-24T21:18:38;9.10;99.90
47514;DHT22;33951;51.988;5.910;2022-12-24T21:21:03;9.10;99.90
47514;DHT22;33951;51.988;5.910;2022-12-24T21:23:29;8.90;99.90
47514;DHT22;33951;51.988;5.910;2022-12-24T21:25:57;8.80;99.90
47514;DHT22;33951;51.988;5.910;2022-12-24T21:28:23;8.80;99.90
47514;DHT22;33951;51.988;5.910;2022-12-24T21:30:49;8.80;99.90
47514;DHT22;33951;51.988;5.910;2022-12-24T21:33:14;9.10;99.90
47514;DHT22;33951;51.988;5.910;2022-12-24T21:35:40;9.20;99.90
47514;DHT22;33951;51.988;5.910;2022-12-24T21:38:05;9.20;99.90
47514;DHT22;33951;51.988;5.910;2022-12-24T21:40:31;9.30;99.90
47514;DHT22;33951;51.988;5.910;2022-12-24T21:42:56;9.30;99.90
47514;DHT22;33951;51.988;5.910;2022-12-24T21:45:22;9.30;99.90
47514;DHT22;33951;51.988;5.910;2022-12-24T21:47:48;9.40;99.90
47514;DHT22;33951;51.988;5.910;2022-12-24T21:50:13;9.30;99.90
47514;DHT22;33951;51.988;5.910;2022-12-24T21:52:58;9.40;99.90
47514;DHT22;33951;51.988;5.910;2022-12-24T21:55:41;9.30;99.90
47514;DHT22;33951;51.988;5.910;2022-12-24T21:58:07;9.30;99.90
47514;DHT22;33951;51.988;5.910;2022-12-24T22:00:33;9.20;99.90
47514;DHT22;33951;51.988;5.910;2022-12-24T22:02:59;9.10;99.90
47514;DHT22;33951;51.988;5.910;2022-12-24T22:05:25;9.10;99.90
47514;DHT22;33951;51.988;5.910;2022-12-24T22:07:51;9.00;99.90
47514;DHT22;33951;51.988;5.910;2022-12-24T22:10:39;9.10;99.90
47514;DHT22;33951;51.988;5.910;2022-12-24T22:13:23;9.10;99.90
47514;DHT22;33951;51.988;5.910;2022-12-24T22:15:55;9.00;99.90
47514;DHT22;33951;51.988;5.910;2022-12-24T22:18:24;9.10;99.90
47514;DHT22;33951;51.988;5.910;2022-12-24T22:20:50;9.00;99.90
47514;DHT22;33951;51.988;5.910;2022-12-24T22:23:16;9.00;99.90
47514;DHT22;33951;51.988;5.910;2022-12-24T22:25:47;9.00;99.90
47514;DHT22;33951;51.988;5.910;2022-12-24T22:28:18;9.00;99.90
47514;DHT22;33951;51.988;5.910;2022-12-24T22:30:44;9.00;99.90
47514;DHT22;33951;51.988;5.910;2022-12-24T22:33:10;9.00;99.90
47514;DHT22;33951;51.988;5.910;2022-12-24T22:35:36;9.00;99.90
47514;DHT22;33951;51.988;5.910;2022-12-24T22:38:02;9.00;99.90
47514;DHT22;33951;51.988;5.910;2022-12-24T22:40:32;9.00;99.90
47514;DHT22;33951;51.988;5.910;2022-12-24T22:42:58;8.90;99.90
47514;DHT22;33951;51.988;5.910;2022-12-24T22:45:24;9.00;99.90
47514;DHT22;33951;51.988;5.910;2022-12-24T22:47:52;9.10;99.90
47514;DHT22;33951;51.988;5.910;2022-12-24T22:50:20;8.90;99.90
47514;DHT22;33951;51.988;5.910;2022-12-24T22:52:48;8.90;99.90
47514;DHT22;33951;51.988;5.910;2022-12-24T22:55:16;8.90;99.90
47514;DHT22;33951;51.988;5.910;2022-12-24T22:57:42;8.80;99.90
47514;DHT22;33951;51.988;5.910;2022-12-24T23:00:15;8.80;99.90
47514;DHT22;33951;51.988;5.910;2022-12-24T23:02:44;8.90;99.90
47514;DHT22;33951;51.988;5.910;2022-12-24T23:05:12;8.80;99.90
47514;DHT22;33951;51.988;5.910;2022-12-24T23:07:37;8.80;99.90
47514;DHT22;33951;51.988;5.910;2022-12-24T23:10:03;8.80;99.90
47514;DHT22;33951;51.988;5.910;2022-12-24T23:12:29;8.80;99.90
47514;DHT22;33951;51.988;5.910;2022-12-24T23:15:13;8.80;99.90
47514;DHT22;33951;51.988;5.910;2022-12-24T23:17:38;8.70;99.90
47514;DHT22;33951;51.988;5.910;2022-12-24T23:20:04;8.70;99.90
47514;DHT22;33951;51.988;5.910;2022-12-24T23:22:30;8.80;99.90
47514;DHT22;33951;51.988;5.910;2022-12-24T23:24:56;8.70;99.90
47514;DHT22;33951;51.988;5.910;2022-12-24T23:27:21;8.70;99.90
47514;DHT22;33951;51.988;5.910;2022-12-24T23:29:47;8.90;99.90
47514;DHT22;33951;51.988;5.910;2022-12-24T23:32:12;8.90;99.90
47514;DHT22;33951;51.988;5.910;2022-12-24T23:34:38;8.90;99.90
47514;DHT22;33951;51.988;5.910;2022-12-24T23:37:04;8.80;99.90
47514;DHT22;33951;51.988;5.910;2022-12-24T23:39:29;8.90;99.90
47514;DHT22;33951;51.988;5.910;2022-12-24T23:41:55;9.00;99.90
47514;DHT22;33951;51.988;5.910;2022-12-24T23:44:20;8.90;99.90
47514;DHT22;33951;51.988;5.910;2022-12-24T23:46:46;8.80;99.90
47514;DHT22;33951;51.988;5.910;2022-12-24T23:49:20;8.90;99.90
47514;DHT22;33951;51.988;5.910;2022-12-24T23:51:48;8.90;99.90
47514;DHT22;33951;51.988;5.910;2022-12-24T23:54:14;8.90;99.90
47514;DHT22;33951;51.988;5.910;2022-12-24T23:56:39;8.80;99.90
47514;DHT22;33951;51.988;5.910;2022-12-24T23:59:07;8.70;99.90
